LPM weather

Lamap Airport
Lamap, Malampa, Vanuatu

Public forecast

Using degrees Celsius for public forecast. Weather courtesy of forecast.io.

Current aviation weather report (METAR) for Lamap Airport

Retrieved 2020/01/21 00:00 UTC (2 hours ago):

NVSL 210000Z AUTO 11007KT //// // NCD ///// Q1010

Aviation forecast (TAF) for Lamap Airport

Retrieved 2020-01-21 00:23 UTC (1 hour ago):

TAF NVSL 202220Z 2100/2124 14006KT 9999 SCT020 INTER 2100/2106 9000 -SHRA BKN018